Airfield :
LOGIN :

Register | Disclaimer

   EN    FR    IT 

 










Legend :    VFR   Marginal VFR   IFR   Intensive IFR   Very Intensive IFR
Visi :
Ceiling :
>= 8 km
>= 3000ft
5 to 8 km
1000 to 3000 ft
1500m to 5 km
500 to 1000 ft
800 to 1500m
200 to 500 ft
< 800m
< 200 ft
Symbols :   Thunderstorms  Fog  Heavy snow  Heavy precipitations  Wind > 20 kt
SIGMETs :     Misc.  Thunderstorms  Icing  Turbulence  Mountain Waves  Volcanic Ashes






- Airport Elevation : 288 ft
- IATA code : BZZ


EGVN - RAF Brize Norton

CURRENT METAR :
  • 060050Z AUTO 05004KT 9999 NCD 01/M02 Q1034

EXPIRED METARs :
  • 060022Z 07004KT 9999 FEW036 02/M02 Q1035 NOSIG RMK BLU BLU
  • 052350Z 06006KT 9999 SCT036 03/M01 Q1034 NOSIG RMK BLU BLU
  • 052320Z 07005KT 9999 SCT038 03/M01 Q1034 NOSIG RMK BLU BLU
  • 052250Z 06006KT 9999 SCT038 03/M01 Q1034 NOSIG

TAF TAF EGVN
Valid from the 06 at 00:00 until the 07 at 00:00 UTC


052218Z 0600/0624 05007KT 9999 SCT040
PROB30 0604/0610 7000 BR



MET'MAP, your aeronautical weather chart ! - Copyright ORBIFLY December 2007 - Disclaimer

ORBIFLY MET'MAP TEAM :

Programming & Development : Alexandra Zaïnal
Concept & original design : Baudouin d'Aumeries
Assistance for programming : Marc-Olivier Méhu
Technical & hardware support : Manuel Goepfert

Contact : metmap@orbifly.com




SOURCES & CREDITS :

   NOAA